Time;durP1;ratioP1;P1;durP2;ratioP2;P2;SDS_P1;SDS_P2;PMS_P1;PMS_P2;Temp;Humidity;BMP_temperature;BMP_pressure;BME280_temperature;BME280_humidity;BME280_pressure;Samples;Min_cycle;Max_cycle;Signal;HPM_P1;HPM_P2
2024/01/31 00:01:17;;;;;;;17.27;9.07;;;;;;;;;;5075247;28;20024;-67
2024/01/31 00:03:43;;;;;;;15.45;8.65;;;;;;;;;;5074993;28;20090;-67
2024/01/31 00:06:10;;;;;;;16.20;8.88;;;;;;;;;;5075067;28;20103;-68
2024/01/31 00:08:36;;;;;;;18.80;8.73;;;;;;;;;;5074713;28;20032;-67
2024/01/31 00:11:01;;;;;;;16.83;8.93;;;;;;;;;;5074814;28;20028;-67
2024/01/31 00:13:27;;;;;;;13.40;8.77;;;;;;;;;;5074895;28;20024;-67
2024/01/31 00:15:52;;;;;;;14.23;9.00;;;;;;;;;;5074463;28;20444;-67
2024/01/31 00:18:18;;;;;;;17.73;8.52;;;;;;;;;;5074322;28;20110;-68
2024/01/31 00:20:43;;;;;;;19.05;10.13;;;;;;;;;;5074864;28;20116;-67
2024/01/31 00:23:09;;;;;;;17.13;9.27;;;;;;;;;;5074629;28;20035;-67
2024/01/31 00:25:34;;;;;;;21.33;9.50;;;;;;;;;;5074816;28;20017;-67
2024/01/31 00:27:59;;;;;;;13.75;8.35;;;;;;;;;;5074594;28;20032;-67
2024/01/31 00:30:25;;;;;;;16.38;10.23;;;;;;;;;;5074744;28;20456;-68
2024/01/31 00:32:50;;;;;;;16.90;9.15;;;;;;;;;;5074446;28;20139;-68
2024/01/31 00:35:16;;;;;;;17.33;10.23;;;;;;;;;;5074452;28;20029;-68
2024/01/31 00:37:41;;;;;;;17.70;9.07;;;;;;;;;;5074402;28;20024;-68
2024/01/31 00:40:09;;;;;;;16.73;9.27;;;;;;;;;;5074385;28;20028;-68
2024/01/31 00:42:37;;;;;;;14.43;7.95;;;;;;;;;;5074375;28;20033;-68
2024/01/31 00:45:06;;;;;;;18.83;9.90;;;;;;;;;;5074270;28;20481;-68
2024/01/31 00:47:32;;;;;;;16.52;8.90;;;;;;;;;;5074354;28;20089;-68
2024/01/31 00:49:58;;;;;;;15.85;9.23;;;;;;;;;;5056346;28;20037;-68
2024/01/31 00:52:23;;;;;;;19.08;9.57;;;;;;;;;;5074130;28;20032;-68
2024/01/31 00:54:49;;;;;;;15.27;9.13;;;;;;;;;;5073813;28;20053;-68
2024/01/31 00:57:14;;;;;;;15.45;9.25;;;;;;;;;;5074194;28;20072;-68
2024/01/31 00:59:43;;;;;;;17.02;10.05;;;;;;;;;;5073973;28;20027;-68
2024/01/31 01:02:09;;;;;;;14.27;9.25;;;;;;;;;;5074037;28;20020;-68
2024/01/31 01:04:35;;;;;;;14.45;8.75;;;;;;;;;;5073702;28;20357;-68
2024/01/31 01:07:00;;;;;;;17.27;9.10;;;;;;;;;;5073890;28;20464;-68
2024/01/31 01:09:25;;;;;;;20.02;9.15;;;;;;;;;;5073745;28;20020;-67
2024/01/31 01:11:51;;;;;;;15.35;8.70;;;;;;;;;;5073722;28;20175;-67
2024/01/31 01:14:17;;;;;;;18.25;9.45;;;;;;;;;;5073729;28;20392;-67
2024/01/31 01:16:42;;;;;;;17.17;9.75;;;;;;;;;;5073556;28;20024;-67
2024/01/31 01:19:08;;;;;;;14.93;8.73;;;;;;;;;;5073374;28;20055;-67
2024/01/31 01:21:33;;;;;;;15.63;9.70;;;;;;;;;;5073413;28;20049;-68
2024/01/31 01:23:59;;;;;;;13.63;8.18;;;;;;;;;;5073530;28;20383;-68
2024/01/31 01:26:25;;;;;;;13.27;8.75;;;;;;;;;;5073455;28;20032;-68
2024/01/31 01:28:50;;;;;;;12.07;7.72;;;;;;;;;;5073165;28;20020;-67
2024/01/31 01:31:16;;;;;;;13.52;7.63;;;;;;;;;;5073458;28;20063;-67
2024/01/31 01:33:41;;;;;;;13.63;8.18;;;;;;;;;;5073441;28;20039;-68
2024/01/31 01:36:07;;;;;;;14.38;7.93;;;;;;;;;;5073168;28;20029;-67
2024/01/31 01:38:33;;;;;;;13.30;8.63;;;;;;;;;;5073290;28;20036;-67
2024/01/31 01:40:58;;;;;;;14.85;7.82;;;;;;;;;;5073119;28;20387;-67
2024/01/31 01:43:24;;;;;;;11.32;7.57;;;;;;;;;;5073152;28;20357;-68
2024/01/31 01:46:06;;;;;;;12.57;7.65;;;;;;;;;;5072950;28;20024;-67
2024/01/31 01:48:32;;;;;;;13.13;6.88;;;;;;;;;;5073014;28;20483;-67
2024/01/31 01:50:57;;;;;;;15.23;7.97;;;;;;;;;;5072723;28;20051;-67
2024/01/31 01:53:23;;;;;;;14.13;7.32;;;;;;;;;;5073044;28;20446;-67
2024/01/31 01:55:48;;;;;;;8.90;6.53;;;;;;;;;;5072850;28;20048;-68
2024/01/31 01:58:14;;;;;;;11.55;6.05;;;;;;;;;;5072629;28;20055;-68
2024/01/31 02:00:42;;;;;;;11.20;5.97;;;;;;;;;;5072568;28;20031;-68
2024/01/31 02:03:08;;;;;;;10.07;6.82;;;;;;;;;;5072431;28;20059;-68
2024/01/31 02:05:33;;;;;;;9.05;4.75;;;;;;;;;;5072589;28;20363;-67
2024/01/31 02:07:59;;;;;;;9.23;6.40;;;;;;;;;;5072406;28;20029;-67
2024/01/31 02:10:25;;;;;;;10.50;6.13;;;;;;;;;;5072580;28;20503;-68
2024/01/31 02:12:51;;;;;;;10.57;6.50;;;;;;;;;;5072538;28;20078;-68
2024/01/31 02:15:16;;;;;;;10.85;5.68;;;;;;;;;;5072575;28;20064;-67
2024/01/31 02:17:41;;;;;;;11.15;5.88;;;;;;;;;;5072550;28;20029;-67
2024/01/31 02:20:07;;;;;;;8.30;5.57;;;;;;;;;;5072390;28;20024;-68
2024/01/31 02:22:33;;;;;;;10.57;5.07;;;;;;;;;;5088030;28;20024;-68
2024/01/31 02:24:59;;;;;;;8.90;5.53;;;;;;;;;;5072426;28;20052;-67
2024/01/31 02:27:25;;;;;;;7.70;5.38;;;;;;;;;;5072470;28;20037;-68
2024/01/31 02:29:50;;;;;;;8.07;5.50;;;;;;;;;;5072350;28;20033;-68
2024/01/31 02:32:15;;;;;;;7.47;5.05;;;;;;;;;;5072349;28;20028;-69
2024/01/31 02:34:41;;;;;;;10.68;4.70;;;;;;;;;;5072096;28;20352;-67
2024/01/31 02:37:06;;;;;;;9.85;4.63;;;;;;;;;;5072380;28;20023;-68
2024/01/31 02:39:33;;;;;;;9.18;4.80;;;;;;;;;;5071944;28;20089;-68
2024/01/31 02:41:58;;;;;;;9.38;4.60;;;;;;;;;;5072408;28;20036;-68
2024/01/31 02:44:24;;;;;;;6.90;4.53;;;;;;;;;;5072307;28;20033;-68
2024/01/31 02:46:49;;;;;;;6.65;3.40;;;;;;;;;;5072018;28;20412;-68
2024/01/31 02:49:15;;;;;;;6.05;3.75;;;;;;;;;;5072006;28;20020;-68
2024/01/31 02:51:40;;;;;;;6.35;4.07;;;;;;;;;;5072212;28;20042;-68
2024/01/31 02:54:05;;;;;;;6.55;4.43;;;;;;;;;;5072089;28;20510;-68
2024/01/31 02:56:31;;;;;;;5.85;3.83;;;;;;;;;;5072197;28;20070;-68
2024/01/31 02:58:56;;;;;;;6.43;3.90;;;;;;;;;;5072035;28;20029;-67
2024/01/31 03:01:22;;;;;;;6.15;3.90;;;;;;;;;;5072178;28;20020;-67
2024/01/31 03:03:47;;;;;;;6.75;3.80;;;;;;;;;;5071701;28;20388;-68
2024/01/31 03:06:12;;;;;;;6.65;4.00;;;;;;;;;;5072148;28;20052;-67
2024/01/31 03:08:38;;;;;;;5.50;3.63;;;;;;;;;;5071938;28;20103;-67
2024/01/31 03:11:03;;;;;;;5.75;3.85;;;;;;;;;;5071924;28;20097;-67
2024/01/31 03:13:29;;;;;;;7.43;3.83;;;;;;;;;;5072053;28;20024;-68
2024/01/31 03:15:54;;;;;;;6.63;3.70;;;;;;;;;;5072173;28;20024;-67
2024/01/31 03:18:19;;;;;;;5.15;3.35;;;;;;;;;;5071710;28;20109;-68
2024/01/31 03:20:45;;;;;;;5.43;3.50;;;;;;;;;;5071850;28;20026;-67
2024/01/31 03:23:10;;;;;;;5.25;3.40;;;;;;;;;;5071849;28;20032;-68
2024/01/31 03:25:36;;;;;;;5.05;3.55;;;;;;;;;;5071974;28;20108;-68
2024/01/31 03:28:01;;;;;;;7.25;3.85;;;;;;;;;;5071751;28;20051;-68
2024/01/31 03:30:26;;;;;;;5.72;3.50;;;;;;;;;;5071922;28;20021;-69
2024/01/31 03:32:53;;;;;;;6.20;3.80;;;;;;;;;;5071589;28;20510;-68
2024/01/31 03:35:18;;;;;;;7.68;4.38;;;;;;;;;;5071886;28;20020;-68
2024/01/31 03:37:44;;;;;;;5.63;3.53;;;;;;;;;;5071882;28;20548;-68
2024/01/31 03:40:09;;;;;;;4.60;3.33;;;;;;;;;;5071785;28;20028;-68
2024/01/31 03:42:35;;;;;;;6.07;3.60;;;;;;;;;;5071704;28;20021;-68
2024/01/31 03:45:03;;;;;;;4.72;3.30;;;;;;;;;;5086928;28;20086;-68
2024/01/31 03:47:29;;;;;;;8.27;3.50;;;;;;;;;;5071507;28;20033;-68
2024/01/31 03:49:55;;;;;;;5.97;3.28;;;;;;;;;;5071791;28;20067;-68
2024/01/31 03:52:20;;;;;;;5.18;3.08;;;;;;;;;;5073430;28;20033;-68
2024/01/31 03:54:45;;;;;;;5.22;2.53;;;;;;;;;;5075080;28;20131;-68
2024/01/31 03:57:11;;;;;;;5.07;2.60;;;;;;;;;;5075237;28;20490;-67
2024/01/31 03:59:37;;;;;;;4.20;2.30;;;;;;;;;;5075261;28;20016;-68
2024/01/31 04:02:02;;;;;;;4.00;2.72;;;;;;;;;;5075002;28;20024;-67
2024/01/31 04:04:28;;;;;;;4.32;2.58;;;;;;;;;;5074774;28;20131;-68
2024/01/31 04:06:53;;;;;;;4.00;2.47;;;;;;;;;;5075261;28;20111;-67
2024/01/31 04:09:19;;;;;;;4.50;2.63;;;;;;;;;;5074896;28;20029;-67
2024/01/31 04:11:44;;;;;;;4.30;2.55;;;;;;;;;;5075150;28;20025;-68
2024/01/31 04:14:09;;;;;;;3.50;2.30;;;;;;;;;;5075021;28;20036;-67
2024/01/31 04:16:35;;;;;;;3.47;2.15;;;;;;;;;;5074573;28;20028;-67
2024/01/31 04:19:00;;;;;;;3.28;2.20;;;;;;;;;;5074822;28;20028;-67
2024/01/31 04:21:26;;;;;;;3.15;2.20;;;;;;;;;;5074936;28;20020;-67
2024/01/31 04:23:51;;;;;;;4.55;2.33;;;;;;;;;;5074518;28;20028;-67
2024/01/31 04:26:17;;;;;;;3.60;2.17;;;;;;;;;;5074833;28;20490;-68
2024/01/31 04:28:42;;;;;;;3.42;2.38;;;;;;;;;;5074551;28;20020;-67
2024/01/31 04:31:14;;;;;;;6.88;2.67;;;;;;;;;;5074470;28;20073;-67
2024/01/31 04:33:40;;;;;;;3.92;2.42;;;;;;;;;;5074678;28;20555;-68
2024/01/31 04:36:05;;;;;;;3.78;2.10;;;;;;;;;;5074633;28;20021;-68
2024/01/31 04:38:31;;;;;;;3.30;1.77;;;;;;;;;;5074497;28;20031;-67
2024/01/31 04:40:57;;;;;;;4.10;2.17;;;;;;;;;;5074130;28;20020;-67
2024/01/31 04:43:22;;;;;;;2.58;1.70;;;;;;;;;;5074362;28;20025;-67
2024/01/31 04:45:47;;;;;;;2.70;1.88;;;;;;;;;;5074007;28;20025;-67
2024/01/31 04:48:13;;;;;;;2.80;1.52;;;;;;;;;;5074330;28;20052;-68
2024/01/31 04:50:38;;;;;;;2.58;1.60;;;;;;;;;;5074211;28;20059;-68
2024/01/31 04:53:04;;;;;;;4.45;1.88;;;;;;;;;;5074332;28;20027;-68
2024/01/31 04:55:29;;;;;;;2.38;1.35;;;;;;;;;;5074000;28;20056;-68
2024/01/31 04:57:55;;;;;;;4.20;2.40;;;;;;;;;;5074174;28;20028;-67
2024/01/31 05:00:23;;;;;;;1.88;1.30;;;;;;;;;;5074031;28;20024;-68
2024/01/31 05:02:49;;;;;;;1.83;1.40;;;;;;;;;;5073561;28;20032;-68
2024/01/31 05:05:15;;;;;;;4.38;3.10;;;;;;;;;;5073999;28;20137;-68
2024/01/31 05:07:40;;;;;;;2.22;1.20;;;;;;;;;;5073993;28;20034;-69
2024/01/31 05:10:06;;;;;;;2.85;1.30;;;;;;;;;;5073914;28;20017;-68
2024/01/31 05:12:32;;;;;;;4.03;1.60;;;;;;;;;;5074043;28;20298;-67
2024/01/31 05:14:57;;;;;;;1.55;1.30;;;;;;;;;;5073659;28;20032;-68
2024/01/31 05:17:23;;;;;;;2.75;1.33;;;;;;;;;;5073631;28;20044;-68
2024/01/31 05:19:48;;;;;;;2.25;1.70;;;;;;;;;;5073660;28;20112;-68
2024/01/31 05:22:13;;;;;;;3.63;1.40;;;;;;;;;;5073652;28;20035;-68
2024/01/31 05:24:39;;;;;;;2.05;1.30;;;;;;;;;;5073358;28;20120;-68
2024/01/31 05:27:05;;;;;;;2.42;1.90;;;;;;;;;;5073558;28;20024;-69
2024/01/31 05:29:30;;;;;;;2.60;1.25;;;;;;;;;;5088815;28;20062;-68
2024/01/31 05:31:56;;;;;;;5.70;1.42;;;;;;;;;;5073381;28;20023;-67
2024/01/31 05:34:22;;;;;;;2.40;1.27;;;;;;;;;;5073479;28;20028;-67
2024/01/31 05:36:48;;;;;;;1.85;1.52;;;;;;;;;;5073358;28;20036;-67
2024/01/31 05:39:14;;;;;;;4.03;1.63;;;;;;;;;;5073348;28;20039;-68
2024/01/31 05:41:43;;;;;;;3.67;1.20;;;;;;;;;;5073396;28;20021;-68
2024/01/31 05:44:08;;;;;;;2.13;1.35;;;;;;;;;;5072755;28;20522;-68
2024/01/31 05:46:34;;;;;;;1.67;1.20;;;;;;;;;;5073008;28;20028;-67
2024/01/31 05:49:01;;;;;;;5.70;1.40;;;;;;;;;;5073012;28;20032;-68
2024/01/31 05:51:27;;;;;;;5.75;1.30;;;;;;;;;;5073040;28;20145;-68
2024/01/31 05:53:53;;;;;;;2.10;1.20;;;;;;;;;;5072908;28;20141;-67
2024/01/31 05:56:18;;;;;;;1.40;1.15;;;;;;;;;;5073006;28;20487;-68
2024/01/31 05:58:44;;;;;;;3.55;1.45;;;;;;;;;;5072642;28;20514;-68
2024/01/31 06:01:09;;;;;;;3.92;1.40;;;;;;;;;;5072709;28;20020;-68
2024/01/31 06:03:35;;;;;;;2.60;1.30;;;;;;;;;;5072703;28;20032;-67
2024/01/31 06:06:00;;;;;;;3.38;1.20;;;;;;;;;;5054871;28;20123;-68
2024/01/31 06:08:25;;;;;;;1.55;1.17;;;;;;;;;;5072861;28;20035;-68
2024/01/31 06:10:54;;;;;;;2.97;1.40;;;;;;;;;;5072252;28;20033;-68
2024/01/31 06:13:22;;;;;;;2.03;1.05;;;;;;;;;;5072805;28;20387;-67
2024/01/31 06:15:48;;;;;;;4.05;1.30;;;;;;;;;;5072104;28;20026;-68
2024/01/31 06:18:16;;;;;;;3.50;1.10;;;;;;;;;;5072513;28;20411;-68
2024/01/31 06:20:43;;;;;;;1.95;1.42;;;;;;;;;;5072344;28;20017;-68
2024/01/31 06:23:12;;;;;;;5.10;1.60;;;;;;;;;;5072301;28;20127;-67
2024/01/31 06:25:38;;;;;;;7.35;3.65;;;;;;;;;;5072424;28;20025;-67
2024/01/31 06:28:05;;;;;;;2.03;1.52;;;;;;;;;;5072649;28;20059;-67
2024/01/31 06:30:33;;;;;;;2.40;1.13;;;;;;;;;;5072512;28;20196;-67
2024/01/31 06:33:06;;;;;;;3.90;1.77;;;;;;;;;;5072468;28;20101;-67
2024/01/31 06:35:32;;;;;;;2.38;1.13;;;;;;;;;;5054518;28;20068;-67
2024/01/31 06:37:57;;;;;;;2.05;1.25;;;;;;;;;;5072086;28;20032;-67
2024/01/31 06:40:23;;;;;;;2.60;1.40;;;;;;;;;;5072017;28;20033;-67
2024/01/31 06:42:49;;;;;;;4.40;1.35;;;;;;;;;;5072207;28;20033;-67
2024/01/31 06:45:15;;;;;;;2.05;1.30;;;;;;;;;;5071821;28;20063;-67
2024/01/31 06:47:40;;;;;;;2.08;1.13;;;;;;;;;;5072046;28;20082;-68
2024/01/31 06:50:06;;;;;;;3.13;1.38;;;;;;;;;;5072100;28;20029;-67
2024/01/31 06:52:31;;;;;;;3.58;2.17;;;;;;;;;;5072178;28;20028;-67
2024/01/31 06:54:57;;;;;;;2.17;1.20;;;;;;;;;;5071895;28;20045;-67
2024/01/31 06:57:23;;;;;;;1.27;1.00;;;;;;;;;;5072111;28;20048;-67
2024/01/31 06:59:49;;;;;;;2.88;1.60;;;;;;;;;;5071010;28;20035;-67
2024/01/31 07:02:14;;;;;;;4.38;1.60;;;;;;;;;;5071771;28;20020;-67
2024/01/31 07:04:40;;;;;;;2.15;1.50;;;;;;;;;;5064148;28;20032;-67
2024/01/31 07:07:05;;;;;;;2.00;1.27;;;;;;;;;;5051828;28;20021;-67
2024/01/31 07:09:32;;;;;;;3.42;1.75;;;;;;;;;;5063850;28;20029;-68
2024/01/31 07:11:58;;;;;;;4.82;1.95;;;;;;;;;;5071672;28;20100;-68
2024/01/31 07:14:24;;;;;;;4.60;1.70;;;;;;;;;;5071902;28;20088;-68
2024/01/31 07:16:49;;;;;;;6.35;1.70;;;;;;;;;;5071552;28;20100;-68
2024/01/31 07:19:15;;;;;;;3.13;2.20;;;;;;;;;;5071674;28;20531;-68
2024/01/31 07:21:40;;;;;;;2.65;1.48;;;;;;;;;;5071631;28;20021;-68
2024/01/31 07:24:06;;;;;;;1.70;1.10;;;;;;;;;;5071466;28;20039;-67
2024/01/31 07:26:31;;;;;;;6.50;1.38;;;;;;;;;;5073905;28;20134;-68
2024/01/31 07:28:57;;;;;;;1.85;1.38;;;;;;;;;;5075584;28;20044;-68
2024/01/31 07:31:22;;;;;;;7.45;3.83;;;;;;;;;;5075558;28;20021;-67
2024/01/31 07:33:47;;;;;;;3.08;1.60;;;;;;;;;;5075320;28;20032;-68
2024/01/31 07:36:13;;;;;;;3.13;1.40;;;;;;;;;;5075592;28;20031;-68
2024/01/31 07:38:43;;;;;;;6.05;1.60;;;;;;;;;;5075239;28;20016;-67
2024/01/31 07:41:08;;;;;;;2.58;1.40;;;;;;;;;;5075461;28;20024;-68
2024/01/31 07:43:34;;;;;;;4.25;1.85;;;;;;;;;;5075254;28;20116;-67
2024/01/31 07:46:00;;;;;;;5.28;3.03;;;;;;;;;;5075042;28;20035;-67
2024/01/31 07:48:25;;;;;;;5.18;2.17;;;;;;;;;;5075200;28;20082;-67
2024/01/31 07:50:51;;;;;;;4.55;1.98;;;;;;;;;;5075053;28;20474;-68
2024/01/31 07:53:16;;;;;;;4.25;1.90;;;;;;;;;;5073723;28;20025;-66
2024/01/31 07:55:42;;;;;;;4.00;1.77;;;;;;;;;;5092893;28;20409;-66
2024/01/31 07:58:07;;;;;;;2.42;1.30;;;;;;;;;;5095536;28;20040;-67
2024/01/31 08:00:32;;;;;;;4.07;1.60;;;;;;;;;;5084973;28;20023;-67
2024/01/31 08:02:58;;;;;;;4.32;1.77;;;;;;;;;;5090719;28;20024;-67
2024/01/31 08:05:23;;;;;;;3.75;1.80;;;;;;;;;;5075057;28;20037;-67
2024/01/31 08:07:49;;;;;;;4.00;1.60;;;;;;;;;;5074560;28;20025;-67
2024/01/31 08:10:14;;;;;;;2.67;2.05;;;;;;;;;;5074818;28;20013;-67
2024/01/31 08:12:41;;;;;;;5.10;2.25;;;;;;;;;;5074778;28;20021;-67
2024/01/31 08:15:07;;;;;;;3.53;1.60;;;;;;;;;;5074544;28;20056;-67
2024/01/31 08:17:33;;;;;;;2.25;1.45;;;;;;;;;;5074676;28;20104;-67
2024/01/31 08:19:58;;;;;;;4.30;1.33;;;;;;;;;;5073311;28;20119;-67
2024/01/31 08:22:23;;;;;;;3.38;1.65;;;;;;;;;;5074507;28;20021;-67
2024/01/31 08:24:49;;;;;;;5.30;2.17;;;;;;;;;;5090460;28;20475;-67
2024/01/31 08:27:17;;;;;;;4.85;1.90;;;;;;;;;;5094691;28;20509;-67
2024/01/31 08:29:43;;;;;;;3.95;1.55;;;;;;;;;;5094670;28;20032;-67
2024/01/31 08:32:09;;;;;;;3.88;2.03;;;;;;;;;;5094742;28;20074;-67
2024/01/31 08:34:34;;;;;;;3.83;2.10;;;;;;;;;;5094690;28;20032;-67
2024/01/31 08:37:00;;;;;;;3.03;1.75;;;;;;;;;;5093979;28;20024;-67
2024/01/31 08:39:26;;;;;;;4.07;2.05;;;;;;;;;;5094436;28;20063;-67
2024/01/31 08:41:51;;;;;;;2.60;1.52;;;;;;;;;;5075213;28;20425;-67
2024/01/31 08:44:16;;;;;;;4.63;1.80;;;;;;;;;;5074030;28;20037;-67
2024/01/31 08:46:42;;;;;;;4.82;2.17;;;;;;;;;;5074054;28;20029;-67
2024/01/31 08:49:07;;;;;;;3.30;1.48;;;;;;;;;;5074228;28;20044;-67
2024/01/31 08:51:35;;;;;;;2.20;1.10;;;;;;;;;;5073982;28;20029;-67
2024/01/31 08:54:01;;;;;;;1.95;1.05;;;;;;;;;;5073734;28;20048;-66
2024/01/31 08:56:26;;;;;;;4.18;1.58;;;;;;;;;;5074059;28;20033;-66
2024/01/31 08:58:52;;;;;;;6.85;1.13;;;;;;;;;;5073663;28;20483;-67
2024/01/31 09:01:17;;;;;;;6.10;1.48;;;;;;;;;;5074117;28;20036;-66
2024/01/31 09:03:43;;;;;;;5.72;1.75;;;;;;;;;;5055746;28;20024;-66
2024/01/31 09:06:08;;;;;;;5.10;1.45;;;;;;;;;;5073404;28;20476;-67
2024/01/31 09:08:34;;;;;;;5.63;1.00;;;;;;;;;;5067124;28;20058;-66
2024/01/31 09:10:59;;;;;;;4.72;1.58;;;;;;;;;;5053786;28;20021;-66
2024/01/31 09:13:25;;;;;;;6.57;2.33;;;;;;;;;;5053771;28;20463;-67
2024/01/31 09:15:50;;;;;;;6.65;1.50;;;;;;;;;;5064746;28;20024;-66
2024/01/31 09:18:16;;;;;;;1.17;0.80;;;;;;;;;;5073397;28;20028;-67
2024/01/31 09:20:41;;;;;;;6.20;0.98;;;;;;;;;;5073166;28;20073;-67
2024/01/31 09:23:07;;;;;;;3.97;1.20;;;;;;;;;;5055307;28;20020;-67
2024/01/31 09:25:33;;;;;;;3.53;1.65;;;;;;;;;;5073360;28;20417;-67
2024/01/31 09:27:58;;;;;;;5.00;1.50;;;;;;;;;;5073313;28;20043;-67
2024/01/31 09:30:24;;;;;;;5.18;1.45;;;;;;;;;;5073391;28;20020;-67
2024/01/31 09:32:49;;;;;;;4.22;1.08;;;;;;;;;;5073257;28;20025;-67
2024/01/31 09:35:15;;;;;;;5.70;1.00;;;;;;;;;;5073120;28;20052;-68
2024/01/31 09:37:40;;;;;;;1.58;0.80;;;;;;;;;;5073059;28;20103;-67
2024/01/31 09:40:06;;;;;;;3.55;0.93;;;;;;;;;;5073094;28;20027;-67
2024/01/31 09:42:32;;;;;;;4.72;1.30;;;;;;;;;;5073071;28;20024;-68
2024/01/31 09:44:58;;;;;;;3.08;0.93;;;;;;;;;;5072932;28;20490;-67
2024/01/31 09:47:27;;;;;;;3.78;1.10;;;;;;;;;;5072943;28;20025;-67
2024/01/31 09:49:54;;;;;;;5.22;0.90;;;;;;;;;;5071660;28;20542;-68
2024/01/31 09:52:29;;;;;;;6.30;1.00;;;;;;;;;;5073016;28;20082;-67
2024/01/31 09:54:58;;;;;;;9.70;1.08;;;;;;;;;;5072841;28;20072;-67
2024/01/31 09:57:27;;;;;;;4.07;0.90;;;;;;;;;;5072770;28;20024;-67
2024/01/31 09:59:56;;;;;;;3.28;1.15;;;;;;;;;;5072696;28;20482;-67
2024/01/31 10:02:21;;;;;;;7.60;1.83;;;;;;;;;;5055179;28;20380;-67
2024/01/31 10:04:49;;;;;;;6.25;1.23;;;;;;;;;;5072327;28;20035;-67
2024/01/31 10:07:33;;;;;;;4.75;1.00;;;;;;;;;;5072778;28;20387;-67
2024/01/31 10:09:59;;;;;;;7.10;1.08;;;;;;;;;;5072499;28;20031;-67
2024/01/31 10:12:25;;;;;;;5.78;1.30;;;;;;;;;;5072689;28;20021;-67
2024/01/31 10:14:51;;;;;;;5.72;1.10;;;;;;;;;;5072489;28;20081;-67
2024/01/31 10:17:20;;;;;;;4.32;1.00;;;;;;;;;;5072537;28;20025;-66
2024/01/31 10:19:46;;;;;;;3.33;0.80;;;;;;;;;;5072186;28;20025;-68
2024/01/31 10:22:12;;;;;;;4.32;0.90;;;;;;;;;;5072488;28;20020;-67
2024/01/31 10:24:41;;;;;;;5.50;1.00;;;;;;;;;;5072325;28;20028;-67
2024/01/31 10:27:08;;;;;;;3.47;1.10;;;;;;;;;;5072583;28;20497;-67
2024/01/31 10:29:34;;;;;;;4.45;1.35;;;;;;;;;;5072309;28;20021;-67
2024/01/31 10:32:00;;;;;;;3.67;0.90;;;;;;;;;;5072180;28;20031;-67
2024/01/31 10:34:27;;;;;;;2.97;1.10;;;;;;;;;;5072479;28;20027;-67
2024/01/31 10:36:54;;;;;;;5.43;1.08;;;;;;;;;;5072186;28;20032;-66
2024/01/31 10:39:20;;;;;;;2.35;0.80;;;;;;;;;;5072244;28;20024;-67
2024/01/31 10:41:47;;;;;;;4.35;1.05;;;;;;;;;;5071994;28;20020;-67
2024/01/31 10:44:16;;;;;;;3.05;0.80;;;;;;;;;;5071939;28;20081;-67
2024/01/31 10:46:43;;;;;;;4.30;0.90;;;;;;;;;;5071794;28;20383;-67
2024/01/31 10:49:16;;;;;;;3.45;1.00;;;;;;;;;;5071939;28;20111;-67
2024/01/31 10:51:45;;;;;;;2.42;0.98;;;;;;;;;;5071622;28;20383;-66
2024/01/31 10:54:12;;;;;;;1.50;0.90;;;;;;;;;;5076917;28;20055;-67
2024/01/31 10:56:38;;;;;;;1.67;0.98;;;;;;;;;;5092247;28;20036;-67
2024/01/31 10:59:06;;;;;;;4.53;0.90;;;;;;;;;;5087700;28;20038;-67
2024/01/31 11:01:31;;;;;;;2.17;1.05;;;;;;;;;;5074119;28;20028;-67
2024/01/31 11:03:57;;;;;;;2.20;0.85;;;;;;;;;;5075913;28;20073;-67
2024/01/31 11:06:29;;;;;;;1.77;0.85;;;;;;;;;;5075900;28;20047;-66
2024/01/31 11:08:55;;;;;;;2.55;0.80;;;;;;;;;;5075917;28;20027;-67
2024/01/31 11:11:20;;;;;;;1.65;0.95;;;;;;;;;;5075964;28;20375;-67
2024/01/31 11:13:46;;;;;;;5.18;1.00;;;;;;;;;;5075938;28;20055;-67
2024/01/31 11:16:14;;;;;;;3.17;0.80;;;;;;;;;;5075718;28;20024;-67
2024/01/31 11:18:40;;;;;;;3.38;0.80;;;;;;;;;;5075769;28;20047;-67
2024/01/31 11:21:10;;;;;;;3.42;0.82;;;;;;;;;;5075816;28;20021;-66
2024/01/31 11:23:35;;;;;;;2.63;1.00;;;;;;;;;;5057540;28;20028;-67
2024/01/31 11:26:02;;;;;;;2.53;0.85;;;;;;;;;;5075784;28;20153;-67
2024/01/31 11:28:28;;;;;;;3.05;0.80;;;;;;;;;;5075340;28;20361;-67
2024/01/31 11:30:54;;;;;;;1.00;0.90;;;;;;;;;;5075344;28;20030;-67
2024/01/31 11:33:21;;;;;;;2.08;0.77;;;;;;;;;;5075612;28;20487;-66
2024/01/31 11:35:46;;;;;;;2.67;0.80;;;;;;;;;;5075502;28;20138;-66
2024/01/31 11:38:17;;;;;;;0.63;0.60;;;;;;;;;;5075575;28;20531;-67
2024/01/31 11:40:42;;;;;;;1.00;0.60;;;;;;;;;;5075310;28;20387;-66
2024/01/31 11:43:08;;;;;;;3.78;0.73;;;;;;;;;;5057359;28;20024;-67
2024/01/31 11:45:34;;;;;;;1.58;0.70;;;;;;;;;;5074741;28;20043;-67
2024/01/31 11:47:59;;;;;;;4.05;0.77;;;;;;;;;;5074901;28;20052;-66
2024/01/31 11:50:25;;;;;;;0.85;0.70;;;;;;;;;;5075344;28;20028;-67
2024/01/31 11:52:52;;;;;;;2.05;0.70;;;;;;;;;;5075068;28;20037;-67
2024/01/31 11:55:22;;;;;;;1.52;0.80;;;;;;;;;;5074859;28;20044;-67
2024/01/31 11:57:47;;;;;;;0.70;0.70;;;;;;;;;;5074872;28;20031;-68
2024/01/31 12:00:14;;;;;;;0.82;0.70;;;;;;;;;;5074483;28;20020;-68
2024/01/31 12:02:40;;;;;;;1.92;0.80;;;;;;;;;;5074442;28;20365;-68
2024/01/31 12:05:06;;;;;;;2.15;0.90;;;;;;;;;;5074682;28;20042;-68
2024/01/31 12:07:32;;;;;;;0.77;0.60;;;;;;;;;;5074919;28;20021;-68
2024/01/31 12:09:58;;;;;;;4.35;1.08;;;;;;;;;;5074599;28;20066;-68
2024/01/31 12:12:24;;;;;;;3.28;0.95;;;;;;;;;;5073747;28;20476;-67
2024/01/31 12:14:49;;;;;;;3.85;1.00;;;;;;;;;;5074331;28;20112;-68
2024/01/31 12:17:25;;;;;;;3.55;1.52;;;;;;;;;;5074735;28;20021;-68
2024/01/31 12:20:04;;;;;;;6.15;1.80;;;;;;;;;;5074475;28;20025;-68
2024/01/31 12:22:31;;;;;;;3.08;1.13;;;;;;;;;;5074788;28;20061;-68
2024/01/31 12:24:57;;;;;;;5.70;1.17;;;;;;;;;;5074376;28;20119;-68
2024/01/31 12:27:22;;;;;;;5.65;1.05;;;;;;;;;;5074408;28;20025;-68
2024/01/31 12:29:48;;;;;;;7.80;1.08;;;;;;;;;;5074143;28;20379;-68
2024/01/31 12:32:13;;;;;;;7.90;1.15;;;;;;;;;;5074434;28;20459;-67
2024/01/31 12:34:39;;;;;;;4.22;0.90;;;;;;;;;;5074442;28;20036;-67
2024/01/31 12:37:04;;;;;;;5.32;1.05;;;;;;;;;;5074513;28;20020;-66
2024/01/31 12:39:30;;;;;;;1.33;0.70;;;;;;;;;;5074358;28;20032;-67
2024/01/31 12:41:55;;;;;;;3.13;1.00;;;;;;;;;;5074317;28;20745;-67
2024/01/31 12:44:21;;;;;;;3.83;1.42;;;;;;;;;;5074000;28;20029;-67
2024/01/31 12:46:46;;;;;;;6.57;1.38;;;;;;;;;;5073539;28;20033;-67
2024/01/31 12:49:12;;;;;;;5.45;1.00;;;;;;;;;;5074184;28;20086;-67
2024/01/31 12:51:37;;;;;;;3.20;1.08;;;;;;;;;;5074265;28;20081;-66
2024/01/31 12:54:03;;;;;;;8.45;1.58;;;;;;;;;;5073787;28;20098;-67
2024/01/31 12:56:28;;;;;;;6.13;2.05;;;;;;;;;;5073895;28;20035;-67
2024/01/31 12:58:56;;;;;;;5.57;1.42;;;;;;;;;;5073686;28;20016;-67
2024/01/31 13:01:22;;;;;;;8.07;1.40;;;;;;;;;;5073780;28;20033;-67
2024/01/31 13:03:47;;;;;;;5.50;1.45;;;;;;;;;;5073641;28;20035;-67
2024/01/31 13:06:13;;;;;;;5.32;1.40;;;;;;;;;;5073838;28;20035;-67
2024/01/31 13:08:38;;;;;;;7.80;1.50;;;;;;;;;;5073313;28;20115;-67
2024/01/31 13:11:04;;;;;;;5.95;1.30;;;;;;;;;;5073588;28;20033;-67
2024/01/31 13:13:29;;;;;;;5.75;1.20;;;;;;;;;;5073561;28;20039;-66
2024/01/31 13:15:55;;;;;;;4.70;0.85;;;;;;;;;;5073528;28;20100;-67
2024/01/31 13:18:21;;;;;;;9.40;1.50;;;;;;;;;;5073342;28;20051;-67
2024/01/31 13:20:47;;;;;;;8.40;1.83;;;;;;;;;;5073477;28;20017;-67
2024/01/31 13:23:13;;;;;;;9.75;2.03;;;;;;;;;;5072706;28;20035;-67
2024/01/31 13:25:38;;;;;;;11.32;1.63;;;;;;;;;;5073122;28;20033;-67
2024/01/31 13:28:04;;;;;;;5.15;1.35;;;;;;;;;;5073094;28;20048;-67
2024/01/31 13:30:29;;;;;;;7.63;1.35;;;;;;;;;;5073347;28;20012;-67
2024/01/31 13:32:55;;;;;;;5.32;1.35;;;;;;;;;;5073134;28;20028;-67
2024/01/31 13:35:21;;;;;;;14.07;1.17;;;;;;;;;;5073297;28;20042;-67
2024/01/31 13:37:47;;;;;;;6.30;1.40;;;;;;;;;;5073116;28;20391;-67
2024/01/31 13:40:12;;;;;;;4.30;1.17;;;;;;;;;;5073359;28;20032;-67
2024/01/31 13:42:37;;;;;;;5.97;1.50;;;;;;;;;;5072341;28;20031;-66
2024/01/31 13:45:03;;;;;;;5.60;2.33;;;;;;;;;;5072194;28;20020;-67
2024/01/31 13:47:29;;;;;;;9.82;1.70;;;;;;;;;;5072981;28;20432;-67
2024/01/31 13:49:55;;;;;;;6.70;1.40;;;;;;;;;;5072869;28;20028;-67
2024/01/31 13:52:20;;;;;;;5.93;2.05;;;;;;;;;;5072705;28;20376;-67
2024/01/31 13:54:46;;;;;;;7.78;1.20;;;;;;;;;;5072625;28;20048;-67
2024/01/31 13:57:11;;;;;;;6.22;1.20;;;;;;;;;;5072519;28;20475;-67
2024/01/31 13:59:37;;;;;;;6.85;1.40;;;;;;;;;;5072699;28;20021;-67
2024/01/31 14:02:03;;;;;;;5.13;0.95;;;;;;;;;;5072667;28;20029;-67
2024/01/31 14:04:29;;;;;;;5.10;1.25;;;;;;;;;;5072608;28;20072;-67
2024/01/31 14:06:54;;;;;;;8.30;1.20;;;;;;;;;;5072575;28;20040;-67
2024/01/31 14:09:21;;;;;;;9.70;2.25;;;;;;;;;;5072319;28;20029;-67
2024/01/31 14:11:47;;;;;;;11.43;1.50;;;;;;;;;;5072321;28;20028;-67
2024/01/31 14:14:12;;;;;;;5.25;1.10;;;;;;;;;;5072598;28;20032;-67
2024/01/31 14:16:38;;;;;;;9.27;1.48;;;;;;;;;;5072336;28;20107;-68
2024/01/31 14:19:03;;;;;;;10.35;1.80;;;;;;;;;;5072363;28;20035;-68
2024/01/31 14:21:29;;;;;;;6.57;2.00;;;;;;;;;;5088024;28;20085;-68
2024/01/31 14:23:54;;;;;;;7.20;1.90;;;;;;;;;;5072218;28;20388;-68
2024/01/31 14:26:20;;;;;;;9.63;1.20;;;;;;;;;;5072283;28;20025;-68
2024/01/31 14:28:45;;;;;;;8.15;1.40;;;;;;;;;;5072343;28;20039;-68
2024/01/31 14:31:11;;;;;;;6.22;1.50;;;;;;;;;;5072340;28;20107;-68
2024/01/31 14:33:36;;;;;;;6.05;1.30;;;;;;;;;;5072254;28;20114;-67